sensor_id;sensor_type;location;lat;lon;timestamp;P1;durP1;ratioP1;P2;durP2;ratioP2
74908;SDS011;63468;52.058;4.824;2023-02-26T00:01:50;12.65;;;5.53;;
74908;SDS011;63468;52.058;4.824;2023-02-26T00:04:15;16.67;;;5.95;;
74908;SDS011;63468;52.058;4.824;2023-02-26T00:06:41;11.07;;;5.32;;
74908;SDS011;63468;52.058;4.824;2023-02-26T00:09:16;9.05;;;4.47;;
74908;SDS011;63468;52.058;4.824;2023-02-26T00:11:42;10.85;;;5.20;;
74908;SDS011;63468;52.058;4.824;2023-02-26T00:14:08;9.70;;;4.72;;
74908;SDS011;63468;52.058;4.824;2023-02-26T00:16:35;14.75;;;5.25;;
74908;SDS011;63468;52.058;4.824;2023-02-26T00:19:01;10.05;;;4.70;;
74908;SDS011;63468;52.058;4.824;2023-02-26T00:21:29;13.43;;;4.82;;
74908;SDS011;63468;52.058;4.824;2023-02-26T00:23:55;10.93;;;4.55;;
74908;SDS011;63468;52.058;4.824;2023-02-26T00:26:21;8.63;;;4.18;;
74908;SDS011;63468;52.058;4.824;2023-02-26T00:28:48;14.13;;;3.80;;
74908;SDS011;63468;52.058;4.824;2023-02-26T00:31:14;16.60;;;5.30;;
74908;SDS011;63468;52.058;4.824;2023-02-26T00:33:40;12.05;;;5.43;;
74908;SDS011;63468;52.058;4.824;2023-02-26T00:36:14;10.23;;;5.00;;
74908;SDS011;63468;52.058;4.824;2023-02-26T00:38:45;12.85;;;4.95;;
74908;SDS011;63468;52.058;4.824;2023-02-26T00:41:18;11.68;;;5.05;;
74908;SDS011;63468;52.058;4.824;2023-02-26T00:43:43;9.18;;;4.38;;
74908;SDS011;63468;52.058;4.824;2023-02-26T00:46:21;14.15;;;4.43;;
74908;SDS011;63468;52.058;4.824;2023-02-26T00:49:02;11.05;;;4.07;;
74908;SDS011;63468;52.058;4.824;2023-02-26T00:51:50;13.48;;;4.63;;
74908;SDS011;63468;52.058;4.824;2023-02-26T00:54:21;11.43;;;4.40;;
74908;SDS011;63468;52.058;4.824;2023-02-26T00:56:49;9.43;;;4.70;;
74908;SDS011;63468;52.058;4.824;2023-02-26T00:59:15;7.18;;;3.75;;
74908;SDS011;63468;52.058;4.824;2023-02-26T01:01:41;9.55;;;3.25;;
74908;SDS011;63468;52.058;4.824;2023-02-26T01:04:07;7.43;;;3.70;;
74908;SDS011;63468;52.058;4.824;2023-02-26T01:06:34;12.00;;;4.28;;
74908;SDS011;63468;52.058;4.824;2023-02-26T01:11:54;12.40;;;3.72;;
74908;SDS011;63468;52.058;4.824;2023-02-26T01:14:22;7.35;;;3.33;;
74908;SDS011;63468;52.058;4.824;2023-02-26T01:16:52;7.57;;;2.88;;
74908;SDS011;63468;52.058;4.824;2023-02-26T01:19:48;9.18;;;2.92;;
74908;SDS011;63468;52.058;4.824;2023-02-26T01:22:22;7.68;;;3.25;;
74908;SDS011;63468;52.058;4.824;2023-02-26T01:25:34;8.10;;;3.40;;
74908;SDS011;63468;52.058;4.824;2023-02-26T01:27:56;7.63;;;3.60;;
74908;SDS011;63468;52.058;4.824;2023-02-26T01:30:24;8.98;;;3.88;;
74908;SDS011;63468;52.058;4.824;2023-02-26T01:43:29;13.63;;;3.75;;
74908;SDS011;63468;52.058;4.824;2023-02-26T01:46:04;12.30;;;3.53;;
74908;SDS011;63468;52.058;4.824;2023-02-26T01:48:47;10.25;;;4.05;;
74908;SDS011;63468;52.058;4.824;2023-02-26T01:51:14;11.32;;;3.47;;
74908;SDS011;63468;52.058;4.824;2023-02-26T01:53:40;6.25;;;3.55;;
74908;SDS011;63468;52.058;4.824;2023-02-26T01:56:08;6.43;;;3.45;;
74908;SDS011;63468;52.058;4.824;2023-02-26T01:58:42;10.20;;;3.85;;
74908;SDS011;63468;52.058;4.824;2023-02-26T02:01:08;11.63;;;3.20;;
74908;SDS011;63468;52.058;4.824;2023-02-26T02:03:34;7.35;;;3.40;;
74908;SDS011;63468;52.058;4.824;2023-02-26T02:06:03;7.75;;;3.38;;
74908;SDS011;63468;52.058;4.824;2023-02-26T02:08:32;7.22;;;3.78;;
74908;SDS011;63468;52.058;4.824;2023-02-26T02:10:59;7.40;;;3.50;;
74908;SDS011;63468;52.058;4.824;2023-02-26T02:16:20;8.05;;;3.47;;
74908;SDS011;63468;52.058;4.824;2023-02-26T02:23:51;7.35;;;3.50;;
74908;SDS011;63468;52.058;4.824;2023-02-26T02:32:07;8.77;;;3.80;;
74908;SDS011;63468;52.058;4.824;2023-02-26T02:34:39;6.80;;;2.97;;
74908;SDS011;63468;52.058;4.824;2023-02-26T02:37:28;6.55;;;3.35;;
74908;SDS011;63468;52.058;4.824;2023-02-26T02:48:02;11.93;;;3.80;;
74908;SDS011;63468;52.058;4.824;2023-02-26T02:50:34;10.43;;;3.60;;
74908;SDS011;63468;52.058;4.824;2023-02-26T02:55:47;7.90;;;4.20;;
74908;SDS011;63468;52.058;4.824;2023-02-26T02:58:20;7.05;;;4.00;;
74908;SDS011;63468;52.058;4.824;2023-02-26T03:00:48;6.95;;;3.80;;
74908;SDS011;63468;52.058;4.824;2023-02-26T03:03:17;11.25;;;4.50;;
74908;SDS011;63468;52.058;4.824;2023-02-26T03:05:45;8.18;;;4.03;;
74908;SDS011;63468;52.058;4.824;2023-02-26T03:08:12;11.73;;;4.30;;
74908;SDS011;63468;52.058;4.824;2023-02-26T03:10:40;9.63;;;4.07;;
74908;SDS011;63468;52.058;4.824;2023-02-26T03:13:05;9.15;;;3.67;;
74908;SDS011;63468;52.058;4.824;2023-02-26T03:18:06;9.13;;;3.42;;
74908;SDS011;63468;52.058;4.824;2023-02-26T03:20:45;10.52;;;3.63;;
74908;SDS011;63468;52.058;4.824;2023-02-26T03:23:21;9.43;;;3.20;;
74908;SDS011;63468;52.058;4.824;2023-02-26T03:25:54;8.50;;;3.78;;
74908;SDS011;63468;52.058;4.824;2023-02-26T03:28:24;6.68;;;3.05;;
74908;SDS011;63468;52.058;4.824;2023-02-26T03:33:31;10.90;;;3.55;;
74908;SDS011;63468;52.058;4.824;2023-02-26T03:36:08;8.15;;;3.67;;
74908;SDS011;63468;52.058;4.824;2023-02-26T03:38:39;7.20;;;3.05;;
74908;SDS011;63468;52.058;4.824;2023-02-26T03:41:10;6.00;;;2.97;;
74908;SDS011;63468;52.058;4.824;2023-02-26T03:43:44;8.63;;;3.42;;
74908;SDS011;63468;52.058;4.824;2023-02-26T03:46:20;7.20;;;3.08;;
74908;SDS011;63468;52.058;4.824;2023-02-26T03:48:49;6.00;;;3.20;;
74908;SDS011;63468;52.058;4.824;2023-02-26T03:51:15;6.90;;;3.25;;
74908;SDS011;63468;52.058;4.824;2023-02-26T03:56:39;6.45;;;3.10;;
74908;SDS011;63468;52.058;4.824;2023-02-26T04:01:34;6.80;;;3.10;;
74908;SDS011;63468;52.058;4.824;2023-02-26T04:04:11;6.10;;;2.80;;
74908;SDS011;63468;52.058;4.824;2023-02-26T04:06:39;10.55;;;3.35;;
74908;SDS011;63468;52.058;4.824;2023-02-26T04:09:05;6.15;;;3.13;;
74908;SDS011;63468;52.058;4.824;2023-02-26T04:11:31;10.02;;;5.03;;
74908;SDS011;63468;52.058;4.824;2023-02-26T04:13:56;6.15;;;3.20;;
74908;SDS011;63468;52.058;4.824;2023-02-26T04:16:21;6.88;;;3.30;;
74908;SDS011;63468;52.058;4.824;2023-02-26T04:18:47;6.53;;;3.38;;
74908;SDS011;63468;52.058;4.824;2023-02-26T04:21:13;7.97;;;3.58;;
74908;SDS011;63468;52.058;4.824;2023-02-26T04:23:41;6.60;;;3.20;;
74908;SDS011;63468;52.058;4.824;2023-02-26T04:26:06;7.10;;;3.55;;
74908;SDS011;63468;52.058;4.824;2023-02-26T04:28:32;8.73;;;3.60;;
74908;SDS011;63468;52.058;4.824;2023-02-26T04:30:59;6.63;;;3.15;;
74908;SDS011;63468;52.058;4.824;2023-02-26T04:33:24;7.55;;;3.63;;
74908;SDS011;63468;52.058;4.824;2023-02-26T04:35:50;8.10;;;3.42;;
74908;SDS011;63468;52.058;4.824;2023-02-26T04:38:16;6.10;;;3.33;;
74908;SDS011;63468;52.058;4.824;2023-02-26T04:40:41;7.45;;;3.13;;
74908;SDS011;63468;52.058;4.824;2023-02-26T04:43:07;5.75;;;2.80;;
74908;SDS011;63468;52.058;4.824;2023-02-26T04:45:32;6.30;;;2.78;;
74908;SDS011;63468;52.058;4.824;2023-02-26T04:47:58;6.05;;;3.15;;
74908;SDS011;63468;52.058;4.824;2023-02-26T04:50:23;7.30;;;3.20;;
74908;SDS011;63468;52.058;4.824;2023-02-26T04:52:48;8.02;;;3.58;;
74908;SDS011;63468;52.058;4.824;2023-02-26T04:55:14;8.82;;;3.50;;
74908;SDS011;63468;52.058;4.824;2023-02-26T04:57:39;10.32;;;3.30;;
74908;SDS011;63468;52.058;4.824;2023-02-26T05:00:04;6.18;;;3.33;;
74908;SDS011;63468;52.058;4.824;2023-02-26T05:02:31;7.47;;;3.22;;
74908;SDS011;63468;52.058;4.824;2023-02-26T05:04:57;11.27;;;3.70;;
74908;SDS011;63468;52.058;4.824;2023-02-26T05:07:22;9.13;;;3.50;;
74908;SDS011;63468;52.058;4.824;2023-02-26T05:09:48;10.02;;;3.10;;
74908;SDS011;63468;52.058;4.824;2023-02-26T05:12:13;7.25;;;3.17;;
74908;SDS011;63468;52.058;4.824;2023-02-26T05:14:38;6.80;;;3.10;;
74908;SDS011;63468;52.058;4.824;2023-02-26T05:17:03;8.82;;;2.90;;
74908;SDS011;63468;52.058;4.824;2023-02-26T05:19:29;8.50;;;4.05;;
74908;SDS011;63468;52.058;4.824;2023-02-26T05:21:54;7.35;;;3.05;;
74908;SDS011;63468;52.058;4.824;2023-02-26T05:24:19;9.98;;;3.63;;
74908;SDS011;63468;52.058;4.824;2023-02-26T05:26:45;6.57;;;3.00;;
74908;SDS011;63468;52.058;4.824;2023-02-26T05:29:10;8.68;;;3.33;;
74908;SDS011;63468;52.058;4.824;2023-02-26T05:31:36;9.20;;;3.10;;
74908;SDS011;63468;52.058;4.824;2023-02-26T05:34:02;8.15;;;3.22;;
74908;SDS011;63468;52.058;4.824;2023-02-26T05:36:27;7.05;;;3.10;;
74908;SDS011;63468;52.058;4.824;2023-02-26T05:38:52;7.75;;;2.90;;
74908;SDS011;63468;52.058;4.824;2023-02-26T05:41:18;6.80;;;2.90;;
74908;SDS011;63468;52.058;4.824;2023-02-26T05:43:43;6.97;;;2.90;;
74908;SDS011;63468;52.058;4.824;2023-02-26T05:46:08;10.82;;;3.17;;
74908;SDS011;63468;52.058;4.824;2023-02-26T05:48:34;10.48;;;3.17;;
74908;SDS011;63468;52.058;4.824;2023-02-26T05:50:59;8.90;;;3.15;;
74908;SDS011;63468;52.058;4.824;2023-02-26T05:53:24;7.50;;;3.38;;
74908;SDS011;63468;52.058;4.824;2023-02-26T05:55:51;6.50;;;3.00;;
74908;SDS011;63468;52.058;4.824;2023-02-26T05:58:17;6.93;;;3.30;;
74908;SDS011;63468;52.058;4.824;2023-02-26T06:00:42;7.20;;;3.00;;
74908;SDS011;63468;52.058;4.824;2023-02-26T06:03:07;5.90;;;3.05;;
74908;SDS011;63468;52.058;4.824;2023-02-26T06:05:33;5.53;;;2.53;;
74908;SDS011;63468;52.058;4.824;2023-02-26T06:08:00;7.47;;;3.10;;
74908;SDS011;63468;52.058;4.824;2023-02-26T06:10:25;7.35;;;3.10;;
74908;SDS011;63468;52.058;4.824;2023-02-26T06:12:51;7.25;;;3.10;;
74908;SDS011;63468;52.058;4.824;2023-02-26T06:15:16;7.30;;;2.58;;
74908;SDS011;63468;52.058;4.824;2023-02-26T06:17:41;8.82;;;2.90;;
74908;SDS011;63468;52.058;4.824;2023-02-26T06:20:07;7.15;;;2.85;;
74908;SDS011;63468;52.058;4.824;2023-02-26T06:22:33;6.88;;;2.70;;
74908;SDS011;63468;52.058;4.824;2023-02-26T06:24:58;7.18;;;2.70;;
74908;SDS011;63468;52.058;4.824;2023-02-26T06:27:24;16.70;;;3.28;;
74908;SDS011;63468;52.058;4.824;2023-02-26T06:29:49;7.43;;;2.90;;
74908;SDS011;63468;52.058;4.824;2023-02-26T06:32:14;6.93;;;3.47;;
74908;SDS011;63468;52.058;4.824;2023-02-26T06:34:40;7.50;;;3.35;;
74908;SDS011;63468;52.058;4.824;2023-02-26T06:37:05;7.15;;;4.28;;
74908;SDS011;63468;52.058;4.824;2023-02-26T06:39:30;7.35;;;2.70;;
74908;SDS011;63468;52.058;4.824;2023-02-26T06:41:56;7.43;;;3.22;;
74908;SDS011;63468;52.058;4.824;2023-02-26T06:44:21;5.90;;;2.63;;
74908;SDS011;63468;52.058;4.824;2023-02-26T06:46:47;6.50;;;2.58;;
74908;SDS011;63468;52.058;4.824;2023-02-26T06:49:12;7.07;;;3.13;;
74908;SDS011;63468;52.058;4.824;2023-02-26T06:51:38;6.55;;;2.92;;
74908;SDS011;63468;52.058;4.824;2023-02-26T06:54:04;8.00;;;3.35;;
74908;SDS011;63468;52.058;4.824;2023-02-26T06:56:29;6.10;;;3.20;;
74908;SDS011;63468;52.058;4.824;2023-02-26T06:58:55;6.43;;;3.28;;
74908;SDS011;63468;52.058;4.824;2023-02-26T07:01:20;7.20;;;4.00;;
74908;SDS011;63468;52.058;4.824;2023-02-26T07:03:45;6.05;;;3.40;;
74908;SDS011;63468;52.058;4.824;2023-02-26T07:06:11;9.88;;;3.35;;
74908;SDS011;63468;52.058;4.824;2023-02-26T07:08:36;6.28;;;3.38;;
74908;SDS011;63468;52.058;4.824;2023-02-26T07:11:02;8.75;;;3.58;;
74908;SDS011;63468;52.058;4.824;2023-02-26T07:13:28;5.85;;;3.35;;
74908;SDS011;63468;52.058;4.824;2023-02-26T07:15:53;7.25;;;3.60;;
74908;SDS011;63468;52.058;4.824;2023-02-26T07:18:18;12.27;;;4.88;;
74908;SDS011;63468;52.058;4.824;2023-02-26T07:20:44;6.85;;;3.45;;
74908;SDS011;63468;52.058;4.824;2023-02-26T07:23:09;7.47;;;3.60;;
74908;SDS011;63468;52.058;4.824;2023-02-26T07:25:35;11.27;;;3.63;;
74908;SDS011;63468;52.058;4.824;2023-02-26T07:28:01;8.85;;;3.78;;
74908;SDS011;63468;52.058;4.824;2023-02-26T07:30:27;10.75;;;4.10;;
74908;SDS011;63468;52.058;4.824;2023-02-26T07:32:52;6.70;;;3.72;;
74908;SDS011;63468;52.058;4.824;2023-02-26T07:35:17;9.15;;;3.72;;
74908;SDS011;63468;52.058;4.824;2023-02-26T07:37:43;6.30;;;3.42;;
74908;SDS011;63468;52.058;4.824;2023-02-26T07:40:08;9.63;;;3.90;;
74908;SDS011;63468;52.058;4.824;2023-02-26T07:42:34;11.88;;;3.75;;
74908;SDS011;63468;52.058;4.824;2023-02-26T07:45:00;9.05;;;3.95;;
74908;SDS011;63468;52.058;4.824;2023-02-26T07:47:26;6.88;;;3.83;;
74908;SDS011;63468;52.058;4.824;2023-02-26T07:49:53;6.97;;;4.07;;
74908;SDS011;63468;52.058;4.824;2023-02-26T07:52:18;7.53;;;3.90;;
74908;SDS011;63468;52.058;4.824;2023-02-26T07:54:44;8.77;;;4.20;;
74908;SDS011;63468;52.058;4.824;2023-02-26T07:57:09;13.10;;;4.65;;
74908;SDS011;63468;52.058;4.824;2023-02-26T07:59:34;6.50;;;4.20;;
74908;SDS011;63468;52.058;4.824;2023-02-26T08:02:00;8.70;;;4.95;;
74908;SDS011;63468;52.058;4.824;2023-02-26T08:04:25;6.68;;;4.50;;
74908;SDS011;63468;52.058;4.824;2023-02-26T08:06:50;9.93;;;6.47;;
74908;SDS011;63468;52.058;4.824;2023-02-26T08:09:18;12.75;;;8.02;;
74908;SDS011;63468;52.058;4.824;2023-02-26T08:11:44;13.20;;;6.53;;
74908;SDS011;63468;52.058;4.824;2023-02-26T08:14:09;7.97;;;4.80;;
74908;SDS011;63468;52.058;4.824;2023-02-26T08:16:35;12.38;;;4.85;;
74908;SDS011;63468;52.058;4.824;2023-02-26T08:19:00;7.78;;;4.80;;
74908;SDS011;63468;52.058;4.824;2023-02-26T08:21:26;17.15;;;5.40;;
74908;SDS011;63468;52.058;4.824;2023-02-26T08:23:51;10.65;;;5.00;;
74908;SDS011;63468;52.058;4.824;2023-02-26T08:26:18;6.60;;;4.80;;
74908;SDS011;63468;52.058;4.824;2023-02-26T08:28:43;9.55;;;5.68;;
74908;SDS011;63468;52.058;4.824;2023-02-26T08:31:10;6.45;;;5.13;;
74908;SDS011;63468;52.058;4.824;2023-02-26T08:33:36;10.80;;;5.22;;
74908;SDS011;63468;52.058;4.824;2023-02-26T08:36:01;6.53;;;5.10;;
74908;SDS011;63468;52.058;4.824;2023-02-26T08:38:27;6.40;;;4.78;;
74908;SDS011;63468;52.058;4.824;2023-02-26T08:40:53;6.65;;;5.40;;
74908;SDS011;63468;52.058;4.824;2023-02-26T08:43:19;7.50;;;5.57;;
74908;SDS011;63468;52.058;4.824;2023-02-26T08:45:44;7.22;;;5.25;;
74908;SDS011;63468;52.058;4.824;2023-02-26T08:48:10;11.23;;;5.85;;
74908;SDS011;63468;52.058;4.824;2023-02-26T08:50:35;7.68;;;6.20;;
74908;SDS011;63468;52.058;4.824;2023-02-26T08:53:01;7.63;;;6.40;;
74908;SDS011;63468;52.058;4.824;2023-02-26T08:55:26;6.85;;;5.43;;
74908;SDS011;63468;52.058;4.824;2023-02-26T08:57:52;6.57;;;5.53;;
74908;SDS011;63468;52.058;4.824;2023-02-26T09:00:17;7.05;;;5.50;;
74908;SDS011;63468;52.058;4.824;2023-02-26T09:02:43;6.40;;;5.00;;
74908;SDS011;63468;52.058;4.824;2023-02-26T09:05:09;6.50;;;5.68;;
74908;SDS011;63468;52.058;4.824;2023-02-26T09:07:34;9.82;;;6.20;;
74908;SDS011;63468;52.058;4.824;2023-02-26T09:09:59;6.63;;;5.43;;
74908;SDS011;63468;52.058;4.824;2023-02-26T09:12:25;9.75;;;6.22;;
74908;SDS011;63468;52.058;4.824;2023-02-26T09:14:50;6.75;;;5.85;;
74908;SDS011;63468;52.058;4.824;2023-02-26T09:17:15;10.18;;;5.85;;
74908;SDS011;63468;52.058;4.824;2023-02-26T09:19:41;10.43;;;5.95;;
74908;SDS011;63468;52.058;4.824;2023-02-26T09:22:06;9.52;;;6.00;;
74908;SDS011;63468;52.058;4.824;2023-02-26T09:24:31;7.50;;;6.00;;
74908;SDS011;63468;52.058;4.824;2023-02-26T09:26:57;10.00;;;6.78;;
74908;SDS011;63468;52.058;4.824;2023-02-26T09:29:22;6.60;;;5.70;;
74908;SDS011;63468;52.058;4.824;2023-02-26T09:31:47;8.00;;;6.45;;
74908;SDS011;63468;52.058;4.824;2023-02-26T09:34:13;8.05;;;6.10;;
74908;SDS011;63468;52.058;4.824;2023-02-26T09:36:38;8.70;;;6.18;;
74908;SDS011;63468;52.058;4.824;2023-02-26T09:39:04;6.85;;;6.15;;
74908;SDS011;63468;52.058;4.824;2023-02-26T09:41:37;7.75;;;5.95;;
74908;SDS011;63468;52.058;4.824;2023-02-26T09:55:17;8.23;;;6.72;;
74908;SDS011;63468;52.058;4.824;2023-02-26T09:57:49;9.07;;;6.13;;
74908;SDS011;63468;52.058;4.824;2023-02-26T10:00:22;7.47;;;5.75;;
74908;SDS011;63468;52.058;4.824;2023-02-26T10:03:13;9.65;;;5.57;;
74908;SDS011;63468;52.058;4.824;2023-02-26T10:08:29;6.50;;;5.80;;
74908;SDS011;63468;52.058;4.824;2023-02-26T10:11:02;6.80;;;6.10;;
74908;SDS011;63468;52.058;4.824;2023-02-26T10:13:36;7.80;;;6.30;;
74908;SDS011;63468;52.058;4.824;2023-02-26T10:16:11;6.78;;;5.82;;
74908;SDS011;63468;52.058;4.824;2023-02-26T10:18:45;7.30;;;6.18;;
74908;SDS011;63468;52.058;4.824;2023-02-26T10:21:20;7.88;;;6.60;;
74908;SDS011;63468;52.058;4.824;2023-02-26T10:26:35;8.35;;;6.13;;
74908;SDS011;63468;52.058;4.824;2023-02-26T10:29:13;7.35;;;6.47;;
74908;SDS011;63468;52.058;4.824;2023-02-26T10:34:28;8.75;;;7.13;;
74908;SDS011;63468;52.058;4.824;2023-02-26T10:37:22;8.25;;;7.10;;
74908;SDS011;63468;52.058;4.824;2023-02-26T10:42:56;7.25;;;6.38;;
74908;SDS011;63468;52.058;4.824;2023-02-26T10:48:22;8.50;;;6.80;;
74908;SDS011;63468;52.058;4.824;2023-02-26T10:51:14;9.30;;;7.13;;
74908;SDS011;63468;52.058;4.824;2023-02-26T10:53:42;8.25;;;7.30;;
74908;SDS011;63468;52.058;4.824;2023-02-26T10:56:10;13.07;;;7.80;;
74908;SDS011;63468;52.058;4.824;2023-02-26T10:58:39;8.15;;;6.50;;
74908;SDS011;63468;52.058;4.824;2023-02-26T11:01:06;11.20;;;6.70;;
74908;SDS011;63468;52.058;4.824;2023-02-26T11:03:49;8.05;;;6.95;;
74908;SDS011;63468;52.058;4.824;2023-02-26T11:06:18;7.65;;;5.93;;
74908;SDS011;63468;52.058;4.824;2023-02-26T11:08:48;8.63;;;6.30;;
74908;SDS011;63468;52.058;4.824;2023-02-26T11:14:01;8.38;;;6.25;;
74908;SDS011;63468;52.058;4.824;2023-02-26T11:16:27;7.82;;;6.80;;
74908;SDS011;63468;52.058;4.824;2023-02-26T11:18:53;8.63;;;6.78;;
74908;SDS011;63468;52.058;4.824;2023-02-26T11:21:26;8.65;;;6.70;;
74908;SDS011;63468;52.058;4.824;2023-02-26T11:23:59;8.38;;;6.53;;
74908;SDS011;63468;52.058;4.824;2023-02-26T11:26:31;7.50;;;6.80;;
74908;SDS011;63468;52.058;4.824;2023-02-26T11:28:58;7.05;;;6.28;;
74908;SDS011;63468;52.058;4.824;2023-02-26T11:31:24;7.45;;;6.40;;
74908;SDS011;63468;52.058;4.824;2023-02-26T11:34:03;7.63;;;6.75;;
74908;SDS011;63468;52.058;4.824;2023-02-26T11:36:31;8.65;;;7.82;;
74908;SDS011;63468;52.058;4.824;2023-02-26T11:39:03;8.25;;;5.30;;
74908;SDS011;63468;52.058;4.824;2023-02-26T11:41:34;7.00;;;6.30;;
74908;SDS011;63468;52.058;4.824;2023-02-26T11:44:04;7.40;;;5.88;;
74908;SDS011;63468;52.058;4.824;2023-02-26T11:46:31;7.80;;;7.00;;
74908;SDS011;63468;52.058;4.824;2023-02-26T11:49:02;7.45;;;6.60;;
74908;SDS011;63468;52.058;4.824;2023-02-26T11:51:28;7.30;;;6.60;;
74908;SDS011;63468;52.058;4.824;2023-02-26T11:53:57;7.88;;;7.13;;
74908;SDS011;63468;52.058;4.824;2023-02-26T11:58:57;7.38;;;6.50;;
74908;SDS011;63468;52.058;4.824;2023-02-26T12:01:40;10.20;;;6.78;;
74908;SDS011;63468;52.058;4.824;2023-02-26T12:04:08;9.80;;;6.30;;
74908;SDS011;63468;52.058;4.824;2023-02-26T12:06:35;8.90;;;7.10;;
74908;SDS011;63468;52.058;4.824;2023-02-26T12:09:00;8.02;;;6.47;;
74908;SDS011;63468;52.058;4.824;2023-02-26T12:11:43;6.95;;;6.25;;
74908;SDS011;63468;52.058;4.824;2023-02-26T12:14:24;7.65;;;6.20;;
74908;SDS011;63468;52.058;4.824;2023-02-26T12:22:19;7.35;;;6.65;;
74908;SDS011;63468;52.058;4.824;2023-02-26T12:39:26;6.35;;;5.40;;
74908;SDS011;63468;52.058;4.824;2023-02-26T12:42:17;7.53;;;5.95;;
74908;SDS011;63468;52.058;4.824;2023-02-26T12:45:07;8.73;;;6.78;;
74908;SDS011;63468;52.058;4.824;2023-02-26T12:56:15;8.73;;;7.03;;
74908;SDS011;63468;52.058;4.824;2023-02-26T13:04:45;7.40;;;6.57;;
74908;SDS011;63468;52.058;4.824;2023-02-26T13:07:42;8.98;;;6.70;;
74908;SDS011;63468;52.058;4.824;2023-02-26T13:21:35;7.80;;;6.70;;
74908;SDS011;63468;52.058;4.824;2023-02-26T13:26:37;7.53;;;6.47;;
74908;SDS011;63468;52.058;4.824;2023-02-26T13:29:07;10.98;;;6.50;;
74908;SDS011;63468;52.058;4.824;2023-02-26T13:31:35;7.68;;;6.43;;
74908;SDS011;63468;52.058;4.824;2023-02-26T13:34:14;7.78;;;6.97;;
74908;SDS011;63468;52.058;4.824;2023-02-26T13:37:00;8.30;;;6.10;;
74908;SDS011;63468;52.058;4.824;2023-02-26T13:39:32;7.57;;;6.40;;
74908;SDS011;63468;52.058;4.824;2023-02-26T13:55:47;9.18;;;7.05;;
74908;SDS011;63468;52.058;4.824;2023-02-26T14:03:48;14.05;;;6.90;;
74908;SDS011;63468;52.058;4.824;2023-02-26T14:09:02;7.35;;;6.45;;
74908;SDS011;63468;52.058;4.824;2023-02-26T14:12:17;8.32;;;6.80;;
74908;SDS011;63468;52.058;4.824;2023-02-26T14:14:40;7.07;;;6.38;;
74908;SDS011;63468;52.058;4.824;2023-02-26T14:20:05;8.20;;;6.72;;
74908;SDS011;63468;52.058;4.824;2023-02-26T14:22:47;9.18;;;6.78;;
74908;SDS011;63468;52.058;4.824;2023-02-26T14:25:17;8.25;;;6.85;;
74908;SDS011;63468;52.058;4.824;2023-02-26T14:27:46;7.00;;;6.25;;
74908;SDS011;63468;52.058;4.824;2023-02-26T14:32:47;7.13;;;6.40;;
74908;SDS011;63468;52.058;4.824;2023-02-26T14:35:18;8.15;;;7.00;;
74908;SDS011;63468;52.058;4.824;2023-02-26T14:42:44;6.88;;;6.00;;
74908;SDS011;63468;52.058;4.824;2023-02-26T14:48:03;11.02;;;7.22;;
74908;SDS011;63468;52.058;4.824;2023-02-26T15:01:38;9.18;;;7.25;;
74908;SDS011;63468;52.058;4.824;2023-02-26T15:04:12;7.88;;;7.00;;
74908;SDS011;63468;52.058;4.824;2023-02-26T15:12:38;10.27;;;7.10;;
74908;SDS011;63468;52.058;4.824;2023-02-26T15:15:35;8.30;;;6.57;;
74908;SDS011;63468;52.058;4.824;2023-02-26T15:25:47;13.93;;;6.90;;
74908;SDS011;63468;52.058;4.824;2023-02-26T15:28:46;7.70;;;6.90;;
74908;SDS011;63468;52.058;4.824;2023-02-26T15:31:05;7.22;;;6.50;;
74908;SDS011;63468;52.058;4.824;2023-02-26T15:33:32;7.30;;;5.82;;
74908;SDS011;63468;52.058;4.824;2023-02-26T15:35:58;6.85;;;5.80;;
74908;SDS011;63468;52.058;4.824;2023-02-26T15:38:24;7.18;;;6.30;;
74908;SDS011;63468;52.058;4.824;2023-02-26T15:40:51;8.93;;;6.13;;
74908;SDS011;63468;52.058;4.824;2023-02-26T15:43:25;9.77;;;5.88;;
74908;SDS011;63468;52.058;4.824;2023-02-26T15:45:55;11.57;;;6.10;;
74908;SDS011;63468;52.058;4.824;2023-02-26T15:48:24;8.65;;;6.28;;
74908;SDS011;63468;52.058;4.824;2023-02-26T15:50:52;8.80;;;5.75;;
74908;SDS011;63468;52.058;4.824;2023-02-26T15:53:36;7.57;;;5.65;;
74908;SDS011;63468;52.058;4.824;2023-02-26T15:56:06;7.40;;;5.80;;
74908;SDS011;63468;52.058;4.824;2023-02-26T15:58:41;8.98;;;6.45;;
74908;SDS011;63468;52.058;4.824;2023-02-26T16:01:15;7.30;;;6.00;;
74908;SDS011;63468;52.058;4.824;2023-02-26T16:03:51;8.05;;;6.15;;
74908;SDS011;63468;52.058;4.824;2023-02-26T16:06:26;8.68;;;6.72;;
74908;SDS011;63468;52.058;4.824;2023-02-26T16:08:53;8.45;;;6.03;;
74908;SDS011;63468;52.058;4.824;2023-02-26T16:11:18;8.38;;;6.07;;
74908;SDS011;63468;52.058;4.824;2023-02-26T16:13:45;7.47;;;6.57;;
74908;SDS011;63468;52.058;4.824;2023-02-26T16:16:15;7.78;;;5.60;;
74908;SDS011;63468;52.058;4.824;2023-02-26T16:18:43;8.75;;;5.70;;
74908;SDS011;63468;52.058;4.824;2023-02-26T16:21:10;8.63;;;6.00;;
74908;SDS011;63468;52.058;4.824;2023-02-26T16:23:47;7.68;;;5.80;;
74908;SDS011;63468;52.058;4.824;2023-02-26T16:26:29;7.60;;;5.78;;
74908;SDS011;63468;52.058;4.824;2023-02-26T16:28:57;8.97;;;5.83;;
74908;SDS011;63468;52.058;4.824;2023-02-26T16:31:25;8.57;;;5.65;;
74908;SDS011;63468;52.058;4.824;2023-02-26T16:34:01;11.90;;;5.50;;
74908;SDS011;63468;52.058;4.824;2023-02-26T16:36:30;9.90;;;6.10;;
74908;SDS011;63468;52.058;4.824;2023-02-26T16:41:32;10.55;;;5.25;;
74908;SDS011;63468;52.058;4.824;2023-02-26T16:44:00;15.35;;;5.55;;
74908;SDS011;63468;52.058;4.824;2023-02-26T16:46:41;6.80;;;5.05;;
74908;SDS011;63468;52.058;4.824;2023-02-26T16:49:10;8.85;;;5.47;;
74908;SDS011;63468;52.058;4.824;2023-02-26T16:51:39;7.43;;;4.70;;
74908;SDS011;63468;52.058;4.824;2023-02-26T16:54:13;7.57;;;5.25;;
74908;SDS011;63468;52.058;4.824;2023-02-26T16:56:42;7.55;;;4.93;;
74908;SDS011;63468;52.058;4.824;2023-02-26T16:59:12;7.63;;;4.90;;
74908;SDS011;63468;52.058;4.824;2023-02-26T17:01:56;7.90;;;6.32;;
74908;SDS011;63468;52.058;4.824;2023-02-26T17:06:58;9.45;;;4.20;;
74908;SDS011;63468;52.058;4.824;2023-02-26T17:09:37;8.52;;;4.70;;
74908;SDS011;63468;52.058;4.824;2023-02-26T17:14:39;7.35;;;4.22;;
74908;SDS011;63468;52.058;4.824;2023-02-26T17:17:06;8.27;;;3.90;;
74908;SDS011;63468;52.058;4.824;2023-02-26T17:19:32;6.47;;;4.18;;
74908;SDS011;63468;52.058;4.824;2023-02-26T17:21:58;7.00;;;4.30;;
74908;SDS011;63468;52.058;4.824;2023-02-26T17:27:05;9.07;;;4.90;;
74908;SDS011;63468;52.058;4.824;2023-02-26T17:29:32;7.75;;;3.95;;
74908;SDS011;63468;52.058;4.824;2023-02-26T17:31:58;10.50;;;4.13;;
74908;SDS011;63468;52.058;4.824;2023-02-26T17:34:23;8.88;;;4.40;;
74908;SDS011;63468;52.058;4.824;2023-02-26T17:36:49;9.68;;;4.00;;
74908;SDS011;63468;52.058;4.824;2023-02-26T17:39:14;11.07;;;3.60;;
74908;SDS011;63468;52.058;4.824;2023-02-26T17:41:41;10.50;;;3.90;;
74908;SDS011;63468;52.058;4.824;2023-02-26T17:44:07;7.20;;;3.40;;
74908;SDS011;63468;52.058;4.824;2023-02-26T17:46:33;19.25;;;4.40;;
74908;SDS011;63468;52.058;4.824;2023-02-26T17:48:58;7.70;;;3.60;;
74908;SDS011;63468;52.058;4.824;2023-02-26T17:51:23;6.63;;;3.60;;
74908;SDS011;63468;52.058;4.824;2023-02-26T17:53:51;6.50;;;3.88;;
74908;SDS011;63468;52.058;4.824;2023-02-26T17:56:20;10.98;;;4.80;;
74908;SDS011;63468;52.058;4.824;2023-02-26T17:58:49;10.65;;;4.20;;
74908;SDS011;63468;52.058;4.824;2023-02-26T18:01:15;7.05;;;3.90;;
74908;SDS011;63468;52.058;4.824;2023-02-26T18:03:41;9.05;;;3.63;;
74908;SDS011;63468;52.058;4.824;2023-02-26T18:06:08;8.70;;;3.95;;
74908;SDS011;63468;52.058;4.824;2023-02-26T18:08:35;8.00;;;3.33;;
74908;SDS011;63468;52.058;4.824;2023-02-26T18:11:01;7.95;;;3.40;;
74908;SDS011;63468;52.058;4.824;2023-02-26T18:13:28;9.43;;;3.75;;
74908;SDS011;63468;52.058;4.824;2023-02-26T18:15:54;12.98;;;4.30;;